createdAt,value
2022-08-17T00:00:34.197Z,90.55
2022-08-17T00:03:03.226Z,90.80
2022-08-17T00:05:33.414Z,90.77
2022-08-17T00:08:01.196Z,90.93
2022-08-17T00:10:31.147Z,91.25
2022-08-17T00:13:00.677Z,91.39
2022-08-17T00:15:29.559Z,90.75
2022-08-17T00:17:57.190Z,90.56
2022-08-17T00:20:32.068Z,90.94
2022-08-17T00:23:11.819Z,91.39
2022-08-17T00:25:41.222Z,90.98
2022-08-17T00:28:09.131Z,90.58
2022-08-17T00:30:51.295Z,90.54
2022-08-17T00:33:25.988Z,90.48
2022-08-17T00:35:55.015Z,90.87
2022-08-17T00:38:23.685Z,90.97
2022-08-17T00:40:55.887Z,90.01
2022-08-17T00:43:31.071Z,90.07
2022-08-17T00:46:00.741Z,89.90
2022-08-17T00:48:30.789Z,90.64
2022-08-17T00:51:08.090Z,91.07
2022-08-17T00:53:39.161Z,91.45
2022-08-17T00:56:11.708Z,91.07
2022-08-17T00:58:39.801Z,90.38
2022-08-17T01:01:11.081Z,90.57
2022-08-17T01:03:39.987Z,90.73
2022-08-17T01:06:09.941Z,91.52
2022-08-17T01:08:39.883Z,92.05
2022-08-17T01:11:09.191Z,92.97
2022-08-17T01:13:41.609Z,93.15
2022-08-17T01:16:17.042Z,93.26
2022-08-17T01:18:46.468Z,92.44
2022-08-17T01:21:21.319Z,92.37
2022-08-17T01:23:50.605Z,92.50
2022-08-17T01:26:19.033Z,92.79
2022-08-17T01:28:54.180Z,92.72
2022-08-17T01:31:25.684Z,92.29
2022-08-17T01:33:53.845Z,91.85
2022-08-17T01:36:21.902Z,91.81
2022-08-17T01:38:51.557Z,92.14
2022-08-17T01:41:22.870Z,92.24
2022-08-17T01:43:54.786Z,91.90
2022-08-17T01:46:23.843Z,91.66
2022-08-17T01:48:51.673Z,91.64
2022-08-17T01:51:20.431Z,92.06
2022-08-17T01:53:52.890Z,92.56
2022-08-17T01:56:24.200Z,92.94
2022-08-17T01:58:53.073Z,92.91
2022-08-17T02:01:24.579Z,93.58
2022-08-17T02:03:53.187Z,93.43
2022-08-17T02:06:28.441Z,93.84
2022-08-17T02:09:02.581Z,93.80
2022-08-17T02:11:33.135Z,94.10
2022-08-17T02:14:03.002Z,94.48
2022-08-17T02:16:37.313Z,94.52
2022-08-17T02:19:08.133Z,95.00
2022-08-17T02:21:36.229Z,95.30
2022-08-17T02:24:06.385Z,95.55
2022-08-17T02:26:36.330Z,95.37
2022-08-17T02:29:04.957Z,96.01
2022-08-17T02:31:32.675Z,96.25
2022-08-17T02:34:04.784Z,95.94
2022-08-17T02:36:35.134Z,95.52
2022-08-17T02:39:05.907Z,95.27
2022-08-17T02:41:33.713Z,95.54
2022-08-17T02:44:01.681Z,95.79
2022-08-17T02:46:30.398Z,96.21
2022-08-17T02:48:58.213Z,96.58
2022-08-17T02:51:26.008Z,95.83
2022-08-17T02:54:35.641Z,95.43
2022-08-17T02:56:42.774Z,95.57
2022-08-17T02:59:10.452Z,95.25
2022-08-17T03:01:38.107Z,94.72
2022-08-17T03:04:06.270Z,94.38
2022-08-17T03:06:33.959Z,93.77
2022-08-17T03:09:01.618Z,93.29
2022-08-17T03:11:29.208Z,93.30
2022-08-17T03:13:59.063Z,93.16
2022-08-17T03:16:26.766Z,93.31
2022-08-17T03:18:55.076Z,93.30
2022-08-17T03:21:22.684Z,93.77
2022-08-17T03:23:54.463Z,94.37
2022-08-17T03:26:22.456Z,95.08
2022-08-17T03:28:50.104Z,95.81
2022-08-17T03:31:20.603Z,95.99
2022-08-17T03:33:48.530Z,96.22
2022-08-17T03:36:16.255Z,96.33
2022-08-17T03:38:44.086Z,96.33
2022-08-17T03:41:13.866Z,96.38
2022-08-17T03:43:41.489Z,96.54
2022-08-17T03:46:34.372Z,96.65
2022-08-17T03:49:23.883Z,96.80
2022-08-17T03:52:09.512Z,96.58
2022-08-17T03:54:54.941Z,96.96
2022-08-17T03:57:22.666Z,97.13
2022-08-17T03:59:50.642Z,97.34
2022-08-17T04:02:20.671Z,97.17
2022-08-17T04:04:51.286Z,97.22
2022-08-17T04:07:19.439Z,97.35
2022-08-17T04:09:48.857Z,97.61
2022-08-17T04:12:17.775Z,97.64
2022-08-17T04:14:52.243Z,97.76
2022-08-17T04:17:24.187Z,97.85
2022-08-17T04:19:54.724Z,98.09
2022-08-17T04:22:32.479Z,98.71
2022-08-17T04:25:08.234Z,98.86
2022-08-17T04:27:36.418Z,98.78
2022-08-17T04:30:06.829Z,99.02
2022-08-17T04:33:03.523Z,99.83
2022-08-17T04:35:25.639Z,100.00
2022-08-17T04:37:53.653Z,100.00
2022-08-17T04:40:40.133Z,100.00
2022-08-17T04:43:10.532Z,100.00
2022-08-17T04:45:40.262Z,100.00
2022-08-17T04:48:22.667Z,100.00
2022-08-17T04:50:56.934Z,100.00
2022-08-17T04:53:24.604Z,100.00
2022-08-17T04:55:53.369Z,100.00
2022-08-17T04:58:21.583Z,100.00
2022-08-17T05:00:49.208Z,100.00
2022-08-17T05:03:16.857Z,100.00
2022-08-17T05:05:49.286Z,100.00
2022-08-17T05:08:20.300Z,100.00
2022-08-17T05:10:48.738Z,100.00
2022-08-17T05:13:19.362Z,100.00
2022-08-17T05:15:48.787Z,100.00
2022-08-17T05:18:17.539Z,100.00
2022-08-17T05:20:46.698Z,100.00
2022-08-17T05:23:16.354Z,100.00
2022-08-17T05:25:48.908Z,100.00
2022-08-17T05:28:23.457Z,100.00
2022-08-17T05:30:55.829Z,100.00
2022-08-17T05:33:26.291Z,100.00
2022-08-17T05:35:55.790Z,100.00
2022-08-17T05:38:25.642Z,100.00
2022-08-17T05:40:55.121Z,100.00
2022-08-17T05:43:24.658Z,100.00
2022-08-17T05:46:03.777Z,100.00
2022-08-17T05:48:40.086Z,100.00
2022-08-17T05:51:32.334Z,100.00
2022-08-17T05:54:12.134Z,100.00
2022-08-17T05:57:00.826Z,100.00
2022-08-17T05:59:38.413Z,100.00
2022-08-17T06:02:14.246Z,100.00
2022-08-17T06:04:56.764Z,100.00
2022-08-17T06:07:30.279Z,100.00
2022-08-17T06:10:05.081Z,100.00
2022-08-17T06:12:44.467Z,100.00
2022-08-17T06:15:26.059Z,100.00
2022-08-17T06:17:58.186Z,100.00
2022-08-17T06:20:28.587Z,100.00
2022-08-17T06:23:06.259Z,100.00
2022-08-17T06:25:38.999Z,100.00
2022-08-17T06:28:14.353Z,100.00
2022-08-17T06:30:59.131Z,100.00
2022-08-17T06:33:34.291Z,100.00
2022-08-17T06:36:09.404Z,100.00
2022-08-17T06:38:49.847Z,100.00
2022-08-17T06:41:26.705Z,100.00
2022-08-17T06:44:09.903Z,100.00
2022-08-17T06:46:39.388Z,99.85
2022-08-17T06:49:16.909Z,99.41
2022-08-17T06:51:50.524Z,98.40
2022-08-17T06:54:27.326Z,97.70
2022-08-17T06:56:59.869Z,96.80
2022-08-17T06:59:56.439Z,96.11
2022-08-17T07:02:52.831Z,95.69
2022-08-17T07:05:24.893Z,94.56
2022-08-17T07:08:03.440Z,93.67
2022-08-17T07:10:37.625Z,93.18
2022-08-17T07:13:21.363Z,93.20
2022-08-17T07:15:56.906Z,93.67
2022-08-17T07:18:27.302Z,94.28
2022-08-17T07:21:03.587Z,94.12
2022-08-17T07:23:41.803Z,93.76
2022-08-17T07:26:10.487Z,93.01
2022-08-17T07:28:41.030Z,93.11
2022-08-17T07:31:13.233Z,93.17
2022-08-17T07:33:40.980Z,93.12
2022-08-17T07:36:29.814Z,90.90
2022-08-17T07:38:58.710Z,89.80
2022-08-17T07:41:27.761Z,88.37
2022-08-17T07:44:16.735Z,87.64
2022-08-17T07:47:12.240Z,86.74
2022-08-17T07:49:41.581Z,85.25
2022-08-17T07:52:24.162Z,84.75
2022-08-17T07:55:00.610Z,84.81
2022-08-17T07:57:33.851Z,84.83
2022-08-17T08:00:19.638Z,85.18
2022-08-17T08:03:16.509Z,84.83
2022-08-17T08:05:57.340Z,83.77
2022-08-17T08:08:31.889Z,83.72
2022-08-17T08:11:03.460Z,81.80
2022-08-17T08:13:32.445Z,80.12
2022-08-17T08:16:20.603Z,80.33
2022-08-17T08:18:54.292Z,80.39
2022-08-17T08:21:36.854Z,80.72
2022-08-17T08:24:23.749Z,80.51
2022-08-17T08:27:00.451Z,79.91
2022-08-17T08:29:37.864Z,79.93
2022-08-17T08:32:18.215Z,78.99
2022-08-17T08:35:02.818Z,79.37
2022-08-17T08:37:43.077Z,78.22
2022-08-17T08:40:22.845Z,78.03
2022-08-17T08:42:59.978Z,77.64
2022-08-17T08:45:38.152Z,77.16
2022-08-17T08:48:22.949Z,76.70
2022-08-17T08:51:17.641Z,77.67
2022-08-17T08:53:54.741Z,76.82
2022-08-17T08:56:28.785Z,74.86
2022-08-17T08:59:03.230Z,74.24
2022-08-17T09:01:38.049Z,73.95
2022-08-17T09:04:40.696Z,73.27
2022-08-17T09:07:30.750Z,72.24
2022-08-17T09:10:07.252Z,71.41
2022-08-17T09:12:47.521Z,71.43
2022-08-17T09:15:19.817Z,70.13
2022-08-17T09:18:14.563Z,70.03
2022-08-17T09:20:50.062Z,69.39
2022-08-17T09:23:32.317Z,68.76
2022-08-17T09:26:03.939Z,68.53
2022-08-17T09:28:36.297Z,66.75
2022-08-17T09:31:10.763Z,65.34
2022-08-17T09:33:43.470Z,64.40
2022-08-17T09:36:17.316Z,64.95
2022-08-17T09:38:56.516Z,65.02
2022-08-17T09:41:32.352Z,65.12
2022-08-17T09:44:10.741Z,64.99
2022-08-17T09:46:56.797Z,64.70
2022-08-17T09:49:31.379Z,64.74
2022-08-17T09:52:03.610Z,63.54
2022-08-17T09:54:40.142Z,62.82
2022-08-17T09:57:29.785Z,63.82
2022-08-17T10:00:18.666Z,62.42
2022-08-17T10:03:28.134Z,62.95
2022-08-17T10:06:06.622Z,63.21
2022-08-17T10:08:39.764Z,61.27
2022-08-17T10:11:22.378Z,61.59
2022-08-17T10:14:36.399Z,61.34
2022-08-17T10:17:04.911Z,61.87
2022-08-17T10:19:39.995Z,61.39
2022-08-17T10:22:41.268Z,61.64
2022-08-17T10:25:42.922Z,61.08
2022-08-17T10:28:28.890Z,59.98
2022-08-17T10:31:31.096Z,60.13
2022-08-17T10:33:59.130Z,59.07
2022-08-17T10:36:37.865Z,60.52
2022-08-17T10:39:19.748Z,61.18
2022-08-17T10:41:52.516Z,61.18
2022-08-17T10:44:37.031Z,61.72
2022-08-17T10:47:10.357Z,62.27
2022-08-17T10:49:39.379Z,62.51
2022-08-17T10:52:48.565Z,63.43
2022-08-17T10:55:20.255Z,61.84
2022-08-17T10:57:50.605Z,60.93
2022-08-17T11:01:00.272Z,59.67
2022-08-17T11:03:28.567Z,60.08
2022-08-17T11:06:05.217Z,60.52
2022-08-17T11:09:03.306Z,60.12
2022-08-17T11:11:53.022Z,60.05
2022-08-17T11:14:34.798Z,59.48
2022-08-17T11:17:16.289Z,59.95
2022-08-17T11:20:09.859Z,60.62
2022-08-17T11:23:07.543Z,60.65
2022-08-17T11:25:39.183Z,60.53
2022-08-17T11:28:10.307Z,60.81
2022-08-17T11:30:44.647Z,61.53
2022-08-17T11:34:02.093Z,61.75
2022-08-17T11:36:47.655Z,63.07
2022-08-17T11:39:38.386Z,64.07
2022-08-17T11:42:19.875Z,63.36
2022-08-17T11:44:54.121Z,63.93
2022-08-17T11:48:09.073Z,63.98
2022-08-17T11:51:05.056Z,65.03
2022-08-17T11:54:31.072Z,65.13
2022-08-17T11:56:52.732Z,64.12
2022-08-17T12:00:00.788Z,64.10
2022-08-17T12:02:47.524Z,65.54
2022-08-17T12:05:33.047Z,68.13
2022-08-17T12:08:19.707Z,69.71
2022-08-17T12:11:03.151Z,68.29
2022-08-17T12:13:39.744Z,67.71
2022-08-17T12:16:10.255Z,67.51
2022-08-17T12:18:41.861Z,67.43
2022-08-17T12:21:18.815Z,67.39
2022-08-17T12:23:56.859Z,68.62
2022-08-17T12:26:30.349Z,69.12
2022-08-17T12:29:01.883Z,69.24
2022-08-17T12:31:35.454Z,69.62
2022-08-17T12:34:04.134Z,69.53
2022-08-17T12:36:33.692Z,68.20
2022-08-17T12:39:13.089Z,68.37
2022-08-17T12:41:44.374Z,68.83
2022-08-17T12:44:15.627Z,70.33
2022-08-17T12:46:52.495Z,71.01
2022-08-17T12:49:24.109Z,71.29
2022-08-17T12:51:56.430Z,71.06
2022-08-17T12:54:31.310Z,70.39
2022-08-17T12:57:05.502Z,69.47
2022-08-17T12:59:33.641Z,68.67
2022-08-17T13:02:02.766Z,67.39
2022-08-17T13:04:32.266Z,67.38
2022-08-17T13:07:00.366Z,66.77
2022-08-17T13:09:35.819Z,65.73
2022-08-17T13:12:09.146Z,65.77
2022-08-17T13:14:36.871Z,65.40
2022-08-17T13:17:11.235Z,64.30
2022-08-17T13:19:49.091Z,63.27
2022-08-17T13:22:16.813Z,62.88
2022-08-17T13:24:54.222Z,60.89
2022-08-17T13:27:25.162Z,61.45
2022-08-17T13:29:56.300Z,61.10
2022-08-17T13:32:38.150Z,60.24
2022-08-17T13:35:39.336Z,59.49
2022-08-17T13:38:10.514Z,60.26
2022-08-17T13:40:42.692Z,61.16
2022-08-17T13:43:11.914Z,61.16
2022-08-17T13:45:53.236Z,61.10
2022-08-17T13:48:26.734Z,60.96
2022-08-17T13:51:25.870Z,60.06
2022-08-17T13:54:01.187Z,60.03
2022-08-17T13:56:38.184Z,60.47
2022-08-17T13:59:11.065Z,59.97
2022-08-17T14:01:41.855Z,57.72
2022-08-17T14:04:13.227Z,57.91
2022-08-17T14:06:53.828Z,57.37
2022-08-17T14:09:24.400Z,57.57
2022-08-17T14:11:53.959Z,55.04
2022-08-17T14:14:23.012Z,54.37
2022-08-17T14:16:50.883Z,55.22
2022-08-17T14:19:21.819Z,52.83
2022-08-17T14:21:50.152Z,52.10
2022-08-17T14:24:23.535Z,50.42
2022-08-17T14:26:52.854Z,49.33
2022-08-17T14:29:21.297Z,48.81
2022-08-17T14:31:54.291Z,48.25
2022-08-17T14:34:24.702Z,48.15
2022-08-17T14:36:53.177Z,47.08
2022-08-17T14:39:21.189Z,46.82
2022-08-17T14:41:49.013Z,47.58
2022-08-17T14:44:16.821Z,47.62
2022-08-17T14:46:45.769Z,47.45
2022-08-17T14:49:15.535Z,46.66
2022-08-17T14:51:44.802Z,46.68
2022-08-17T14:54:28.779Z,47.17
2022-08-17T14:57:22.531Z,47.26
2022-08-17T14:59:50.704Z,46.99
2022-08-17T15:02:29.443Z,46.80
2022-08-17T15:05:01.643Z,46.01
2022-08-17T15:07:31.423Z,45.89
2022-08-17T15:10:00.760Z,46.83
2022-08-17T15:12:33.354Z,47.70
2022-08-17T15:15:02.025Z,47.93
2022-08-17T15:17:44.485Z,47.86
2022-08-17T15:20:16.579Z,48.32
2022-08-17T15:22:49.370Z,48.21
2022-08-17T15:25:17.559Z,48.38
2022-08-17T15:27:45.361Z,48.45
2022-08-17T15:30:14.630Z,49.10
2022-08-17T15:32:50.734Z,48.98
2022-08-17T15:35:28.182Z,48.97
2022-08-17T15:38:06.244Z,49.35
2022-08-17T15:40:36.994Z,49.35
2022-08-17T15:43:10.315Z,50.02
2022-08-17T15:45:38.290Z,50.51
2022-08-17T15:48:06.835Z,50.85
2022-08-17T15:50:34.886Z,51.18
2022-08-17T15:53:04.711Z,51.38
2022-08-17T15:55:33.639Z,52.40
2022-08-17T15:58:01.767Z,52.63
2022-08-17T16:00:30.336Z,53.35
2022-08-17T16:03:29.440Z,53.36
2022-08-17T16:05:48.916Z,53.38
2022-08-17T16:08:21.149Z,52.92
2022-08-17T16:10:49.980Z,54.04
2022-08-17T16:13:18.719Z,54.37
2022-08-17T16:15:56.568Z,54.92
2022-08-17T16:18:27.299Z,55.76
2022-08-17T16:20:55.107Z,55.75
2022-08-17T16:23:24.760Z,56.17
2022-08-17T16:25:54.243Z,56.55
2022-08-17T16:28:23.604Z,57.01
2022-08-17T16:31:03.862Z,56.67
2022-08-17T16:33:31.466Z,56.83
2022-08-17T16:35:59.247Z,57.14
2022-08-17T16:38:28.326Z,57.14
2022-08-17T16:40:55.995Z,57.31
2022-08-17T16:43:23.638Z,57.53
2022-08-17T16:45:52.233Z,57.93
2022-08-17T16:48:20.035Z,58.53
2022-08-17T16:51:03.198Z,58.79
2022-08-17T16:53:33.343Z,58.96
2022-08-17T16:56:01.051Z,59.34
2022-08-17T16:58:29.017Z,59.70
2022-08-17T17:00:59.556Z,60.00
2022-08-17T17:03:31.818Z,60.40
2022-08-17T17:06:08.534Z,60.74
2022-08-17T17:08:44.802Z,61.11
2022-08-17T17:11:16.335Z,61.90
2022-08-17T17:13:50.639Z,62.09
2022-08-17T17:16:21.621Z,61.94
2022-08-17T17:19:04.491Z,62.28
2022-08-17T17:21:38.350Z,62.24
2022-08-17T17:24:15.046Z,62.94
2022-08-17T17:26:57.264Z,63.37
2022-08-17T17:29:48.186Z,63.85
2022-08-17T17:32:21.378Z,63.84
2022-08-17T17:34:52.318Z,64.06
2022-08-17T17:37:26.391Z,64.27
2022-08-17T17:39:59.876Z,64.99
2022-08-17T17:42:31.362Z,65.19
2022-08-17T17:45:08.601Z,65.47
2022-08-17T17:47:38.274Z,65.44
2022-08-17T17:50:07.979Z,65.48
2022-08-17T17:52:45.271Z,66.10
2022-08-17T17:55:26.245Z,66.35
2022-08-17T17:58:04.299Z,66.54
2022-08-17T18:00:38.179Z,66.85
2022-08-17T18:03:20.420Z,67.40
2022-08-17T18:06:25.749Z,68.10
2022-08-17T18:09:04.757Z,67.96
2022-08-17T18:11:51.746Z,68.59
2022-08-17T18:14:32.112Z,68.93
2022-08-17T18:17:02.217Z,69.39
2022-08-17T18:19:31.977Z,69.74
2022-08-17T18:22:06.937Z,70.04
2022-08-17T18:24:37.878Z,70.54
2022-08-17T18:27:21.562Z,70.58
2022-08-17T18:29:51.180Z,71.13
2022-08-17T18:32:25.498Z,70.97
2022-08-17T18:34:55.643Z,71.18
2022-08-17T18:37:42.567Z,71.28
2022-08-17T18:40:36.182Z,71.38
2022-08-17T18:43:23.772Z,72.09
2022-08-17T18:45:54.189Z,72.45
2022-08-17T18:48:28.966Z,72.52
2022-08-17T18:51:00.306Z,72.92
2022-08-17T18:53:38.125Z,72.75
2022-08-17T18:56:21.353Z,73.48
2022-08-17T18:59:03.225Z,73.80
2022-08-17T19:01:46.962Z,73.21
2022-08-17T19:04:34.561Z,74.05
2022-08-17T19:07:09.243Z,74.38
2022-08-17T19:09:41.358Z,74.70
2022-08-17T19:12:27.571Z,74.98
2022-08-17T19:14:58.688Z,75.12
2022-08-17T19:17:35.259Z,74.97
2022-08-17T19:20:10.517Z,74.63
2022-08-17T19:22:50.656Z,74.70
2022-08-17T19:25:24.210Z,74.33
2022-08-17T19:27:59.926Z,73.94
2022-08-17T19:30:29.457Z,74.00
2022-08-17T19:32:58.384Z,74.37
2022-08-17T19:35:32.219Z,75.04
2022-08-17T19:38:13.336Z,75.44
2022-08-17T19:40:54.028Z,75.46
2022-08-17T19:43:30.118Z,75.17
2022-08-17T19:46:08.433Z,75.78
2022-08-17T19:48:47.084Z,75.71
2022-08-17T19:51:21.384Z,76.07
2022-08-17T19:54:05.341Z,76.16
2022-08-17T19:56:45.077Z,76.14
2022-08-17T19:59:21.244Z,76.26
2022-08-17T20:01:53.930Z,76.88
2022-08-17T20:04:35.392Z,77.12
2022-08-17T20:07:08.463Z,77.04
2022-08-17T20:09:39.511Z,77.31
2022-08-17T20:12:10.755Z,77.45
2022-08-17T20:14:53.944Z,77.79
2022-08-17T20:17:28.614Z,78.10
2022-08-17T20:20:03.071Z,77.68
2022-08-17T20:22:46.750Z,77.91
2022-08-17T20:25:30.566Z,78.07
2022-08-17T20:28:05.939Z,77.72
2022-08-17T20:30:38.349Z,78.13
2022-08-17T20:33:12.482Z,78.20
2022-08-17T20:36:00.307Z,78.15
2022-08-17T20:38:43.307Z,78.51
2022-08-17T20:41:14.503Z,78.99
2022-08-17T20:44:05.022Z,79.67
2022-08-17T20:46:52.802Z,80.13
2022-08-17T20:49:27.672Z,80.28
2022-08-17T20:52:03.670Z,80.66
2022-08-17T20:54:48.197Z,81.41
2022-08-17T20:57:45.512Z,81.39
2022-08-17T21:00:34.488Z,81.87
2022-08-17T21:03:39.972Z,82.12
2022-08-17T21:06:23.112Z,83.16
2022-08-17T21:08:58.768Z,83.82
2022-08-17T21:12:02.384Z,84.51
2022-08-17T21:14:59.523Z,84.53
2022-08-17T21:17:39.940Z,84.95
2022-08-17T21:20:26.935Z,84.96
2022-08-17T21:23:24.181Z,85.36
2022-08-17T21:26:08.224Z,85.10
2022-08-17T21:29:01.305Z,86.36
2022-08-17T21:31:35.967Z,87.15
2022-08-17T21:34:32.817Z,87.28
2022-08-17T21:37:29.673Z,88.38
2022-08-17T21:40:01.175Z,89.26
2022-08-17T21:42:32.356Z,89.22
2022-08-17T21:45:11.556Z,89.50
2022-08-17T21:47:47.687Z,89.61
2022-08-17T21:50:21.422Z,89.39
2022-08-17T21:52:51.359Z,89.69
2022-08-17T21:55:28.091Z,89.84
2022-08-17T21:58:13.807Z,90.14
2022-08-17T22:00:44.194Z,90.47
2022-08-17T22:03:24.027Z,90.60
2022-08-17T22:05:51.761Z,91.15
2022-08-17T22:08:22.973Z,91.24
2022-08-17T22:11:01.991Z,91.89
2022-08-17T22:13:30.131Z,92.16
2022-08-17T22:16:15.462Z,92.70
2022-08-17T22:18:58.573Z,92.30
2022-08-17T22:21:26.655Z,92.14
2022-08-17T22:24:06.603Z,92.17
2022-08-17T22:27:02.765Z,92.07
2022-08-17T22:29:57.428Z,91.98
2022-08-17T22:32:34.475Z,92.21
2022-08-17T22:35:33.088Z,93.06
2022-08-17T22:38:26.091Z,94.35
2022-08-17T22:40:55.493Z,95.01
2022-08-17T22:43:28.955Z,95.52
2022-08-17T22:45:59.814Z,95.79
2022-08-17T22:48:31.149Z,95.72
2022-08-17T22:51:12.849Z,96.07
2022-08-17T22:54:04.477Z,96.13
2022-08-17T22:56:50.119Z,95.87
2022-08-17T22:59:38.339Z,95.47
2022-08-17T23:02:23.621Z,95.94
2022-08-17T23:04:54.099Z,96.08
2022-08-17T23:07:22.031Z,96.37
2022-08-17T23:09:49.813Z,96.80
2022-08-17T23:12:22.017Z,97.44
2022-08-17T23:14:58.338Z,97.19
2022-08-17T23:17:27.506Z,97.50
2022-08-17T23:19:56.958Z,98.08
2022-08-17T23:22:25.359Z,98.83
2022-08-17T23:24:53.065Z,99.18
2022-08-17T23:27:22.078Z,99.51
2022-08-17T23:29:51.373Z,99.89
2022-08-17T23:32:19.603Z,99.18
2022-08-17T23:34:50.775Z,98.86
2022-08-17T23:37:19.925Z,99.23
2022-08-17T23:39:47.624Z,100.00
2022-08-17T23:42:21.760Z,100.00
2022-08-17T23:44:51.057Z,100.00
2022-08-17T23:47:18.719Z,100.00
2022-08-17T23:49:46.340Z,99.42
2022-08-17T23:52:16.506Z,98.61
2022-08-17T23:54:46.491Z,98.63
2022-08-17T23:57:16.567Z,99.38
2022-08-17T23:59:44.972Z,99.72
